Time;durP1;ratioP1;P1;durP2;ratioP2;P2;SDS_P1;SDS_P2;PMS_P1;PMS_P2;Temp;Humidity;BMP_temperature;BMP_pressure;BME280_temperature;BME280_humidity;BME280_pressure;Samples;Min_cycle;Max_cycle;Signal;HPM_P1;HPM_P2
2024/02/01 00:00:36;;;;;;;31.90;16.83;;;;;;;-2.55;67.56;101512.03;5050388;28;20024;-77
2024/02/01 00:03:02;;;;;;;28.63;15.95;;;;;;;-2.23;66.77;101523.00;5068795;28;20393;-76
2024/02/01 00:05:27;;;;;;;34.05;16.85;;;;;;;-2.47;66.98;101526.28;5068345;28;20036;-75
2024/02/01 00:07:52;;;;;;;23.02;13.07;;;;;;;-2.92;68.83;101520.41;5062241;28;20020;-75
2024/02/01 00:10:18;;;;;;;24.20;12.98;;;;;;;-2.88;69.28;101511.47;5089036;28;20457;-76
2024/02/01 00:12:43;;;;;;;25.17;14.48;;;;;;;-2.59;68.15;101521.84;5088713;28;20059;-76
2024/02/01 00:15:09;;;;;;;22.75;11.82;;;;;;;-2.68;68.62;101517.19;5088225;28;20039;-76
2024/02/01 00:17:35;;;;;;;30.83;14.85;;;;;;;-2.71;69.60;101525.22;5069741;28;20056;-76
2024/02/01 00:20:00;;;;;;;19.23;10.75;;;;;;;-2.89;70.56;101512.38;5088495;28;20031;-77
2024/02/01 00:22:26;;;;;;;14.60;7.90;;;;;;;-2.74;69.71;101512.34;5088183;28;20039;-76
2024/02/01 00:24:53;;;;;;;13.25;7.22;;;;;;;-3.32;71.58;101494.16;5088334;28;20106;-76
2024/02/01 00:27:18;;;;;;;13.55;6.93;;;;;;;-3.49;73.29;101504.78;5063273;28;20031;-75
2024/02/01 00:29:44;;;;;;;13.73;6.60;;;;;;;-3.21;72.22;101505.69;5074538;28;20092;-76
2024/02/01 00:32:09;;;;;;;15.82;8.77;;;;;;;-3.74;73.10;101495.81;5064233;28;20042;-77
2024/02/01 00:34:38;;;;;;;24.33;11.88;;;;;;;-3.95;73.15;101479.66;5062674;28;20173;-75
2024/02/01 00:37:03;;;;;;;23.48;12.05;;;;;;;-3.47;70.86;101497.72;5078287;28;20047;-76
2024/02/01 00:39:29;;;;;;;17.45;9.18;;;;;;;-2.95;69.91;101504.94;5076713;28;20117;-76
2024/02/01 00:41:54;;;;;;;14.60;7.20;;;;;;;-3.55;71.37;101482.53;5059904;28;20173;-77
2024/02/01 00:44:20;;;;;;;20.92;8.73;;;;;;;-3.07;70.65;101500.47;5061242;28;20489;-77
2024/02/01 00:46:45;;;;;;;19.23;8.05;;;;;;;-3.30;70.00;101474.03;5078195;28;20466;-78
2024/02/01 00:49:11;;;;;;;16.83;8.50;;;;;;;-2.96;69.88;101498.03;5081603;28;20028;-77
2024/02/01 00:51:36;;;;;;;19.50;8.52;;;;;;;-3.32;69.89;101488.94;5069403;28;20036;-78
2024/02/01 00:54:01;;;;;;;17.40;8.25;;;;;;;-3.95;71.62;101460.59;5088266;28;20035;-78
2024/02/01 00:56:27;;;;;;;15.93;8.00;;;;;;;-4.51;73.53;101452.53;5088259;28;20017;-76
2024/02/01 00:58:52;;;;;;;18.77;8.45;;;;;;;-4.01;72.75;101476.59;5087122;28;20085;-78
2024/02/01 01:01:17;;;;;;;19.85;9.85;;;;;;;-3.84;72.37;101432.13;5088538;28;20042;-77
2024/02/01 01:03:43;;;;;;;19.48;9.93;;;;;;;-3.34;73.56;101492.59;5088834;28;20439;-77
2024/02/01 01:06:09;;;;;;;19.13;9.65;;;;;;;-3.71;74.54;101448.72;5070362;28;20040;-77
2024/02/01 01:08:35;;;;;;;19.38;9.73;;;;;;;-3.52;74.47;101482.31;5084601;28;20113;-78
2024/02/01 01:11:01;;;;;;;17.70;8.77;;;;;;;-3.21;73.34;101493.50;5071817;28;20020;-77
2024/02/01 01:13:26;;;;;;;22.98;11.57;;;;;;;-3.35;73.06;101465.66;5097328;28;20020;-78
2024/02/01 01:15:52;;;;;;;24.80;11.85;;;;;;;-3.70;74.04;101434.75;5097361;28;20965;-77
2024/02/01 01:18:17;;;;;;;20.65;10.27;;;;;;;-3.29;74.05;101464.44;5092956;28;20055;-77
2024/02/01 01:20:43;;;;;;;23.85;12.73;;;;;;;-3.09;71.87;101471.84;5059597;28;20054;-78
2024/02/01 01:23:08;;;;;;;29.42;19.83;;;;;;;-3.52;72.71;101421.50;5078318;28;20016;-77
2024/02/01 01:25:33;;;;;;;21.25;10.15;;;;;;;-3.27;72.52;101450.38;5089803;28;20107;-77
2024/02/01 01:27:59;;;;;;;22.20;11.50;;;;;;;-3.25;72.59;101458.94;5097042;28;20028;-77
2024/02/01 01:30:24;;;;;;;16.30;8.32;;;;;;;-3.42;72.23;101448.69;5075985;28;20059;-77
2024/02/01 01:32:50;;;;;;;19.00;8.90;;;;;;;-3.41;73.00;101467.78;5076021;28;20020;-77
2024/02/01 01:35:15;;;;;;;15.30;7.75;;;;;;;-3.60;73.47;101436.78;5058351;28;20033;-77
2024/02/01 01:37:40;;;;;;;16.77;8.43;;;;;;;-3.44;73.02;101442.75;5077161;28;20073;-77
2024/02/01 01:40:06;;;;;;;14.25;7.03;;;;;;;-3.43;73.11;101457.47;5076660;28;20047;-77
2024/02/01 01:42:32;;;;;;;16.13;7.93;;;;;;;-3.22;72.13;101462.31;5074817;28;20025;-78
2024/02/01 01:44:58;;;;;;;18.05;7.75;;;;;;;-3.51;72.36;101417.97;5074366;28;20039;-77
2024/02/01 01:47:26;;;;;;;17.60;7.35;;;;;;;-3.13;71.62;101453.88;5073057;28;20449;-78
2024/02/01 01:49:51;;;;;;;15.95;7.88;;;;;;;-4.11;74.33;101430.22;5073220;28;20064;-77
2024/02/01 01:52:17;;;;;;;16.13;8.20;;;;;;;-4.46;76.39;101445.28;5069111;28;20466;-77
2024/02/01 01:54:43;;;;;;;14.27;8.05;;;;;;;-4.64;76.96;101447.16;5069200;28;20080;-77
2024/02/01 01:57:08;;;;;;;16.98;8.57;;;;;;;-5.01;77.91;101433.63;5050445;28;20424;-77
2024/02/01 01:59:34;;;;;;;17.15;8.65;;;;;;;-5.28;78.38;101434.19;5070801;28;20036;-77
2024/02/01 02:02:00;;;;;;;17.42;9.05;;;;;;;-5.25;78.59;101407.22;5067887;28;20044;-77
2024/02/01 02:04:26;;;;;;;20.90;10.05;;;;;;;-4.73;75.91;101432.09;5067982;28;20033;-77
2024/02/01 02:06:55;;;;;;;18.92;9.10;;;;;;;-5.03;76.39;101399.03;5067248;28;20038;-77
2024/02/01 02:09:22;;;;;;;20.73;9.20;;;;;;;-4.76;76.45;101422.69;5083143;28;20039;-77
2024/02/01 02:11:47;;;;;;;14.68;8.07;;;;;;;-5.19;77.50;101419.88;5068820;28;20086;-77
2024/02/01 02:14:15;;;;;;;21.42;8.90;;;;;;;-5.03;77.51;101424.22;5069384;28;20032;-77
2024/02/01 02:16:40;;;;;;;18.85;8.82;;;;;;;-5.22;78.65;101427.00;5053170;28;20056;-77
2024/02/01 02:19:09;;;;;;;19.42;8.60;;;;;;;-5.49;78.64;101405.00;5072669;28;20028;-77
2024/02/01 02:21:52;;;;;;;16.95;8.10;;;;;;;-4.83;77.14;101430.94;5070655;28;20063;-77
2024/02/01 02:24:18;;;;;;;16.75;8.75;;;;;;;-4.65;75.60;101409.06;5070639;28;20020;-77
2024/02/01 02:26:45;;;;;;;18.70;8.80;;;;;;;-4.44;75.97;101413.03;5052380;28;20117;-77
2024/02/01 02:29:14;;;;;;;18.10;9.23;;;;;;;-4.31;75.32;101402.75;5078393;28;20408;-77
2024/02/01 02:31:40;;;;;;;20.52;11.02;;;;;;;-4.26;75.36;101398.09;5071987;28;20107;-77
2024/02/01 02:34:06;;;;;;;19.02;10.55;;;;;;;-4.08;75.39;101398.78;5091059;28;20124;-78
2024/02/01 02:36:31;;;;;;;22.13;9.35;;;;;;;-4.15;75.80;101396.63;5059841;28;20025;-77
2024/02/01 02:38:57;;;;;;;21.48;10.65;;;;;;;-4.53;76.67;101410.97;5054668;28;20131;-77
2024/02/01 02:41:22;;;;;;;28.38;11.35;;;;;;;-4.56;76.94;101411.13;5052043;28;20409;-78
2024/02/01 02:43:48;;;;;;;25.92;12.20;;;;;;;-4.34;76.41;101400.31;5069915;28;20510;-77
2024/02/01 02:46:13;;;;;;;19.70;10.05;;;;;;;-4.49;76.48;101360.41;5069732;28;20040;-77
2024/02/01 02:48:38;;;;;;;20.35;9.07;;;;;;;-3.99;74.42;101373.09;5071699;28;20512;-78
2024/02/01 02:51:04;;;;;;;17.40;8.77;;;;;;;-4.28;75.45;101373.09;5053092;28;20990;-76
2024/02/01 02:53:30;;;;;;;17.88;8.57;;;;;;;-4.64;75.80;101361.28;5069858;28;20029;-77
2024/02/01 02:55:55;;;;;;;23.92;10.80;;;;;;;-5.36;77.65;101394.78;5056802;28;20075;-77
2024/02/01 02:58:21;;;;;;;24.90;10.07;;;;;;;-5.70;78.96;101373.22;5089974;28;20020;-77
2024/02/01 03:00:46;;;;;;;20.92;10.10;;;;;;;-5.18;77.72;101368.69;5056421;28;21130;-77
2024/02/01 03:03:12;;;;;;;18.85;9.60;;;;;;;-5.31;77.72;101366.78;5051604;28;20178;-78
2024/02/01 03:05:38;;;;;;;17.92;9.77;;;;;;;-5.05;78.15;101390.47;5051411;28;20021;-78
2024/02/01 03:08:05;;;;;;;20.85;10.10;;;;;;;-5.18;77.25;101330.50;5051993;28;20509;-77
2024/02/01 03:10:33;;;;;;;24.45;12.05;;;;;;;-4.82;76.93;101375.34;5054250;28;20119;-77
2024/02/01 03:12:58;;;;;;;;;;;;;;;-4.79;75.97;101385.59;5070075;28;20031;-77
2024/02/01 03:15:28;;;;;;;26.13;11.75;;;;;;;-4.73;77.02;101390.44;5051237;28;19912;-78
2024/02/01 03:17:53;;;;;;;27.42;12.80;;;;;;;-4.74;75.48;101341.91;5069993;28;20020;-78
2024/02/01 03:20:22;;;;;;;25.25;11.85;;;;;;;-4.52;74.75;101357.13;5071791;28;20025;-78
2024/02/01 03:22:47;;;;;;;;;;;;;;;-4.39;74.68;101378.06;5070282;28;20033;-77
2024/02/01 03:25:13;;;;;;;22.08;11.55;;;;;;;-4.71;75.40;101336.53;5068944;28;20246;-77
2024/02/01 03:27:43;;;;;;;20.67;11.30;;;;;;;-4.60;75.19;101367.97;5069096;28;20031;-77
2024/02/01 03:30:17;;;;;;;21.65;10.80;;;;;;;-4.71;76.03;101383.38;5071254;28;20085;-77
2024/02/01 03:32:43;;;;;;;20.33;10.52;;;;;;;-5.19;77.92;101367.00;5051056;28;20452;-77
2024/02/01 03:35:09;;;;;;;26.30;11.80;;;;;;;-5.50;79.38;101363.50;5069394;28;20028;-78
2024/02/01 03:37:34;;;;;;;27.90;12.68;;;;;;;-5.23;78.84;101366.34;5050826;28;20552;-77
2024/02/01 03:40:00;;;;;;;23.90;11.50;;;;;;;-4.77;76.19;101358.53;5073768;28;20030;-77
2024/02/01 03:42:26;;;;;;;19.23;9.93;;;;;;;-4.41;75.10;101365.16;5088897;28;20031;-77
2024/02/01 03:44:52;;;;;;;21.55;10.40;;;;;;;-4.13;73.98;101374.75;5089154;28;20028;-78
2024/02/01 03:47:17;;;;;;;22.73;11.95;;;;;;;-4.22;74.53;101374.50;5089058;28;20028;-77
2024/02/01 03:49:43;;;;;;;20.98;10.60;;;;;;;-4.31;74.29;101373.25;5088316;28;20028;-78
2024/02/01 03:52:08;;;;;;;22.00;11.88;;;;;;;-4.26;74.64;101377.25;5089050;28;20044;-77
2024/02/01 03:54:40;;;;;;;19.67;10.55;;;;;;;-4.56;75.26;101348.66;5089100;28;20480;-77
2024/02/01 03:57:06;;;;;;;27.48;12.43;;;;;;;-4.87;76.01;101357.41;5062631;28;20112;-77
2024/02/01 03:59:32;;;;;;;18.75;9.70;;;;;;;-5.77;77.96;101343.25;5069640;28;20032;-78
2024/02/01 04:02:03;;;;;;;20.17;9.77;;;;;;;-5.59;78.22;101361.41;5070285;28;20531;-77
2024/02/01 04:04:30;;;;;;;19.58;9.48;;;;;;;-5.50;77.37;101322.72;5088410;28;20522;-77
2024/02/01 04:06:55;;;;;;;19.83;10.23;;;;;;;-5.09;77.21;101368.16;5082893;28;21364;-77
2024/02/01 04:09:21;;;;;;;22.08;10.52;;;;;;;-5.00;76.30;101341.66;5068350;28;20685;-76
2024/02/01 04:11:46;;;;;;;23.35;10.82;;;;;;;-5.43;78.17;101349.25;5070482;28;20031;-77
2024/02/01 04:14:12;;;;;;;23.17;11.45;;;;;;;-5.69;80.00;101346.28;5067876;28;20046;-77
2024/02/01 04:16:37;;;;;;;25.88;12.07;;;;;;;-5.45;78.96;101338.94;5070223;28;20060;-77
2024/02/01 04:19:03;;;;;;;24.02;11.73;;;;;;;-5.06;77.45;101352.41;5069946;28;20115;-77
2024/02/01 04:21:28;;;;;;;43.97;22.33;;;;;;;-5.37;79.32;101368.84;5064168;28;20222;-77
2024/02/01 04:23:54;;;;;;;50.80;27.58;;;;;;;-5.68;82.60;101371.38;5078414;28;20025;-77
2024/02/01 04:26:20;;;;;;;52.33;27.95;;;;;;;-5.50;81.98;101360.88;5079369;28;20434;-77
2024/02/01 04:28:45;;;;;;;50.42;26.55;;;;;;;-5.48;80.09;101338.25;5069893;28;20087;-76
2024/02/01 04:31:11;;;;;;;43.35;22.75;;;;;;;-5.78;80.67;101359.78;5085612;28;20509;-78
2024/02/01 04:33:40;;;;;;;44.17;22.08;;;;;;;-6.10;79.97;101317.34;5087796;28;20024;-78
2024/02/01 04:36:09;;;;;;;29.92;17.10;;;;;;;-5.38;80.73;101375.81;5058576;28;20031;-79
2024/02/01 04:38:36;;;;;;;24.63;12.70;;;;;;;-4.93;79.76;101384.59;5061513;28;20117;-77
2024/02/01 04:41:05;;;;;;;29.08;15.75;;;;;;;-4.93;78.63;101374.19;5060646;28;20632;-77
2024/02/01 04:43:31;;;;;;;24.80;13.23;;;;;;;-5.11;78.56;101357.00;5077749;28;20350;-77
2024/02/01 04:45:56;;;;;;;22.98;12.43;;;;;;;-5.27;79.55;101359.63;5057939;28;20032;-78
2024/02/01 04:48:21;;;;;;;26.27;12.27;;;;;;;-5.37;79.42;101345.44;5078176;28;20040;-77
2024/02/01 04:50:49;;;;;;;27.35;12.68;;;;;;;-5.36;80.21;101345.38;5080245;28;20123;-77
2024/02/01 04:53:15;;;;;;;21.50;11.00;;;;;;;-5.29;80.59;101349.31;5061336;28;20024;-77
2024/02/01 04:55:40;;;;;;;21.15;10.88;;;;;;;-5.38;81.21;101364.59;5087042;28;20055;-77
2024/02/01 04:58:06;;;;;;;20.10;9.50;;;;;;;-5.30;81.34;101373.63;5087384;28;20107;-77
2024/02/01 05:00:31;;;;;;;20.38;10.50;;;;;;;-5.05;80.41;101354.06;5085699;28;20052;-77
2024/02/01 05:02:56;;;;;;;22.50;11.18;;;;;;;-5.09;79.65;101345.63;5069307;28;20396;-76
2024/02/01 05:05:22;;;;;;;22.00;10.45;;;;;;;-4.79;78.45;101355.19;5087878;28;20103;-78
2024/02/01 05:07:47;;;;;;;30.25;16.10;;;;;;;-4.67;77.22;101354.47;5083630;28;20097;-77
2024/02/01 05:10:13;;;;;;;24.48;13.40;;;;;;;-4.78;77.58;101356.03;5060063;28;20036;-78
2024/02/01 05:12:43;;;;;;;27.52;13.88;;;;;;;-4.53;75.79;101364.09;5059274;28;20035;-76
2024/02/01 05:15:09;;;;;;;24.30;14.45;;;;;;;-4.91;77.10;101361.94;5076271;28;20052;-77
2024/02/01 05:17:39;;;;;;;37.92;18.00;;;;;;;-5.21;79.53;101363.66;5067265;28;20044;-77
2024/02/01 05:20:09;;;;;;;45.75;27.02;;;;;;;-5.18;78.29;101347.88;5067061;28;20021;-77
2024/02/01 05:22:38;;;;;;;43.67;23.95;;;;;;;-4.72;76.62;101360.88;5051969;28;20489;-77
2024/02/01 05:25:19;;;;;;;43.90;24.05;;;;;;;-4.84;75.70;101378.06;5067461;28;20029;-78
2024/02/01 05:27:52;;;;;;;52.92;26.90;;;;;;;-5.34;78.32;101379.09;5067050;28;20039;-76
2024/02/01 05:30:20;;;;;;;66.60;30.55;;;;;;;-5.52;78.60;101371.34;5067164;28;20503;-77
2024/02/01 05:32:52;;;;;;;75.38;38.42;;;;;;;-5.41;78.79;101372.53;5084836;28;20040;-77
2024/02/01 05:35:27;;;;;;;65.30;30.88;;;;;;;-5.05;76.93;101375.75;5087619;28;20116;-77
2024/02/01 05:37:53;;;;;;;64.40;32.30;;;;;;;-5.00;76.27;101364.22;5082791;28;20485;-77
2024/02/01 05:40:19;;;;;;;61.90;30.60;;;;;;;-5.07;76.47;101371.53;5048973;28;20055;-77
2024/02/01 05:42:44;;;;;;;84.93;38.92;;;;;;;-5.59;78.03;101333.63;5069184;28;20082;-76
2024/02/01 05:45:11;;;;;;;66.85;30.95;;;;;;;-5.87;79.28;101329.91;5067011;28;20082;-78
2024/02/01 05:47:37;;;;;;;46.00;22.50;;;;;;;-5.83;79.47;101351.38;5048922;28;20031;-78
2024/02/01 05:50:04;;;;;;;40.70;21.08;;;;;;;-5.88;79.31;101341.25;5066562;28;20021;-77
2024/02/01 05:52:33;;;;;;;54.60;29.33;;;;;;;-5.55;78.59;101344.72;5082456;28;20043;-77
2024/02/01 05:54:59;;;;;;;73.93;41.67;;;;;;;-5.45;78.76;101333.72;5091003;28;20035;-78
2024/02/01 05:57:24;;;;;;;59.20;33.33;;;;;;;-5.19;78.57;101360.06;5090876;28;20024;-77
2024/02/01 05:59:49;;;;;;;52.17;29.00;;;;;;;-4.87;77.44;101360.81;5054855;28;20033;-77
2024/02/01 06:02:15;;;;;;;58.63;30.58;;;;;;;-4.79;76.58;101349.16;5081283;28;20501;-78
2024/02/01 06:04:42;;;;;;;51.63;29.23;;;;;;;-4.89;77.08;101297.63;5072788;28;20127;-77
2024/02/01 06:07:07;;;;;;;59.42;37.38;;;;;;;-4.61;76.92;101350.69;5090537;28;20042;-78
2024/02/01 06:09:33;;;;;;;74.38;42.03;;;;;;;-4.68;78.11;101354.56;5077740;28;20032;-77
2024/02/01 06:11:58;;;;;;;103.45;63.13;;;;;;;-4.63;78.08;101343.91;5073089;28;21085;-77
2024/02/01 06:14:24;;;;;;;59.83;35.60;;;;;;;-4.16;76.84;101367.13;5070646;28;20033;-77
2024/02/01 06:16:49;;;;;;;69.00;38.67;;;;;;;-3.95;75.46;101358.97;5081979;28;20063;-77
2024/02/01 06:19:15;;;;;;;59.25;35.47;;;;;;;-3.92;74.75;101356.19;5072531;28;20031;-77
2024/02/01 06:21:41;;;;;;;85.65;39.88;;;;;;;-4.27;76.53;101349.56;5090155;28;20024;-78
2024/02/01 06:24:10;;;;;;;72.45;42.83;;;;;;;-4.40;77.80;101347.75;5072287;28;20046;-79
2024/02/01 06:26:36;;;;;;;80.00;38.28;;;;;;;-4.57;78.38;101323.56;5090431;28;20103;-76
2024/02/01 06:29:07;;;;;;;105.72;47.10;;;;;;;-4.23;77.40;101342.38;5063615;28;20120;-77
2024/02/01 06:31:37;;;;;;;93.68;41.67;;;;;;;-3.88;76.43;101360.28;5067865;28;20052;-78
2024/02/01 06:34:04;;;;;;;83.10;40.80;;;;;;;-3.47;74.79;101373.34;5070941;28;20402;-77
2024/02/01 06:36:34;;;;;;;74.15;36.45;;;;;;;-3.72;74.86;101347.97;5081358;28;20162;-77
2024/02/01 06:44:21;;;;;;;;;;;;;;;-3.35;75.64;101370.91;5087128;28;20063;-77
2024/02/01 07:00:51;;;;;;;50.97;25.50;;;;;;;-2.86;75.41;101347.72;5043188;28;20072;-76
2024/02/01 07:09:16;;;;;;;38.63;22.63;;;;;;;-2.97;77.28;101350.19;5079431;28;20501;-76
2024/02/01 07:16:24;;;;;;;29.13;17.52;;;;;;;-2.56;77.06;101332.75;5071654;28;20052;-78
2024/02/01 07:59:58;;;;;;;32.05;17.30;;;;;;;-0.87;76.60;101313.84;5079211;28;20102;-77
2024/02/01 08:02:49;;;;;;;27.65;15.27;;;;;;;-0.54;74.29;101320.13;5085253;28;20052;-78
2024/02/01 08:08:01;;;;;;;25.73;13.88;;;;;;;-0.22;71.18;101332.56;5071219;28;20498;-78
2024/02/01 08:10:27;;;;;;;36.53;22.13;;;;;;;0.23;70.61;101316.00;5077916;28;20020;-79
2024/02/01 08:12:55;;;;;;;34.83;19.27;;;;;;;0.45;69.81;101312.50;5087221;28;20027;-79
2024/02/01 08:15:21;;;;;;;103.07;62.13;;;;;;;0.98;69.13;101328.34;5067878;28;20025;-79
2024/02/01 08:17:51;;;;;;;88.22;51.97;;;;;;;1.03;67.36;101307.78;5088473;28;20036;-78
2024/02/01 08:20:19;;;;;;;28.13;15.23;;;;;;;1.02;67.13;101303.47;5088428;28;20051;-78
2024/02/01 08:22:44;;;;;;;32.50;17.83;;;;;;;1.36;66.47;101322.56;5087967;28;20077;-79
2024/02/01 08:25:14;;;;;;;28.90;15.35;;;;;;;1.09;66.65;101291.53;5069718;28;20509;-79
2024/02/01 08:27:49;;;;;;;23.73;13.18;;;;;;;1.11;64.44;101308.00;5088262;28;20537;-77
2024/02/01 08:30:19;;;;;;;24.85;13.65;;;;;;;1.33;65.00;101303.59;5081766;28;20040;-79
2024/02/01 08:32:45;;;;;;;31.00;18.00;;;;;;;1.94;64.12;101306.28;5067975;28;20043;-78
2024/02/01 08:35:12;;;;;;;24.58;14.02;;;;;;;2.36;62.99;101332.47;5087899;28;20051;-75
2024/02/01 08:37:38;;;;;;;24.48;13.55;;;;;;;2.40;61.72;101328.59;5087883;28;20030;-77
2024/02/01 08:40:20;;;;;;;26.67;14.93;;;;;;;2.23;63.47;101305.56;5068490;28;20032;-79
2024/02/01 08:42:57;;;;;;;27.90;15.65;;;;;;;2.90;62.39;101322.44;5069717;28;20119;-77
2024/02/01 08:45:24;;;;;;;26.23;15.18;;;;;;;2.49;60.74;101242.69;5085002;28;20436;-77
2024/02/01 08:47:49;;;;;;;25.40;15.18;;;;;;;3.31;59.76;101291.50;5087748;28;20039;-78
2024/02/01 08:50:15;;;;;;;24.55;14.13;;;;;;;3.56;58.49;101308.50;5087700;28;20032;-77
2024/02/01 08:52:48;;;;;;;23.58;13.70;;;;;;;3.65;58.48;101295.44;5087971;28;20115;-78
2024/02/01 08:55:15;;;;;;;58.17;33.85;;;;;;;3.73;57.56;101295.56;5066750;28;20485;-77
2024/02/01 08:57:41;;;;;;;28.42;17.52;;;;;;;3.62;57.87;101265.72;5069325;28;20020;-77
2024/02/01 09:00:32;;;;;;;23.63;14.13;;;;;;;3.60;57.88;101280.06;5087933;28;20043;-79
2024/02/01 09:03:05;;;;;;;17.88;11.40;;;;;;;3.76;57.83;101301.38;5086648;28;20189;-78
2024/02/01 09:05:32;;;;;;;22.27;13.32;;;;;;;4.04;56.67;101298.75;5068409;28;20032;-78
2024/02/01 09:07:59;;;;;;;38.08;19.33;;;;;;;3.92;56.69;101279.63;5087313;28;20036;-77
2024/02/01 09:10:24;;;;;;;22.75;12.40;;;;;;;4.40;55.16;101273.28;5083508;28;20031;-77
2024/02/01 09:12:50;;;;;;;41.55;25.95;;;;;;;4.47;53.19;101292.00;5067397;28;20029;-77
2024/02/01 09:15:15;;;;;;;28.55;14.32;;;;;;;4.94;51.09;101277.75;5085315;28;20055;-76
2024/02/01 09:17:41;;;;;;;25.20;12.65;;;;;;;4.91;49.51;101243.72;5049512;28;20048;-78
2024/02/01 09:20:17;;;;;;;25.30;12.65;;;;;;;5.23;48.37;101243.94;5067123;28;20031;-76
2024/02/01 09:22:44;;;;;;;21.00;10.80;;;;;;;5.78;55.67;101258.66;5066932;28;20468;-77
2024/02/01 09:25:10;;;;;;;40.55;20.17;;;;;;;11.57;46.74;101267.56;5053940;28;20047;-78
2024/02/01 09:27:39;;;;;;;27.52;15.32;;;;;;;11.08;38.41;101257.75;5028627;28;20039;-77
2024/02/01 09:30:06;;;;;;;17.98;9.85;;;;;;;12.07;37.16;101278.13;5047364;28;20021;-77
2024/02/01 09:32:32;;;;;;;23.90;14.80;;;;;;;12.76;36.19;101254.88;5046870;28;20118;-76
2024/02/01 09:34:58;;;;;;;36.33;20.77;;;;;;;13.55;35.19;101242.53;5049048;28;20025;-77
2024/02/01 09:37:23;;;;;;;76.93;34.97;;;;;;;14.99;32.83;101245.72;5047345;28;20029;-76
2024/02/01 09:39:49;;;;;;;24.38;14.38;;;;;;;14.24;32.09;101263.31;5046880;28;20037;-76
2024/02/01 09:42:18;;;;;;;26.23;15.80;;;;;;;14.54;30.91;101237.75;5047176;28;20395;-78
2024/02/01 09:44:44;;;;;;;57.15;51.03;;;;;;;11.77;31.95;101237.44;5031669;28;20118;-79
2024/02/01 09:47:12;;;;;;;14.52;10.15;;;;;;;10.58;32.39;101220.38;5046916;28;20059;-77
2024/02/01 09:49:40;;;;;;;18.80;15.30;;;;;;;9.47;35.43;101235.59;5046823;28;20094;-77
2024/02/01 09:52:09;;;;;;;15.05;9.68;;;;;;;9.09;35.91;101221.50;5028887;28;20029;-78
2024/02/01 09:54:35;;;;;;;14.57;9.35;;;;;;;8.71;37.19;101226.81;5048988;28;20021;-76
2024/02/01 09:57:03;;;;;;;14.23;9.85;;;;;;;7.76;38.82;101202.06;5046822;28;20021;-77
2024/02/01 09:59:35;;;;;;;17.25;10.20;;;;;;;7.90;40.06;101192.56;5046559;28;20219;-77
2024/02/01 10:02:02;;;;;;;14.38;9.00;;;;;;;7.88;40.01;101188.44;5047493;28;20025;-76
2024/02/01 10:04:27;;;;;;;14.18;9.75;;;;;;;8.21;37.79;101200.56;5049062;28;20115;-76
2024/02/01 10:06:53;;;;;;;16.17;9.27;;;;;;;8.08;38.08;101194.16;5046246;28;20108;-77
2024/02/01 10:09:21;;;;;;;15.32;8.05;;;;;;;8.34;37.38;101160.09;5028550;28;20541;-77
2024/02/01 10:11:47;;;;;;;13.13;7.47;;;;;;;7.85;37.06;101182.47;5046478;28;20025;-77
2024/02/01 10:14:14;;;;;;;14.55;9.07;;;;;;;8.05;36.41;101169.56;5047791;28;20128;-78
2024/02/01 10:16:39;;;;;;;13.90;7.65;;;;;;;8.08;36.89;101167.56;5075889;28;20079;-77
2024/02/01 10:19:08;;;;;;;12.90;7.85;;;;;;;8.30;38.40;101153.47;5086732;28;20071;-76
2024/02/01 10:21:35;;;;;;;13.95;8.48;;;;;;;8.47;36.07;101126.81;5081089;28;20032;-76
2024/02/01 10:24:04;;;;;;;12.07;8.13;;;;;;;8.37;36.98;101145.63;5067978;28;20040;-76
2024/02/01 10:26:30;;;;;;;13.73;8.00;;;;;;;8.38;36.13;101116.22;5051222;28;20736;-77
2024/02/01 10:28:56;;;;;;;14.77;7.50;;;;;;;8.79;35.11;101115.88;5066380;28;20447;-75
2024/02/01 10:31:22;;;;;;;14.77;10.48;;;;;;;9.01;34.72;101135.44;5066124;28;20028;-75
2024/02/01 10:33:49;;;;;;;14.15;7.65;;;;;;;8.65;34.39;101112.16;5048638;28;20466;-77
2024/02/01 10:36:28;;;;;;;12.73;7.65;;;;;;;9.39;35.37;101126.53;5082468;28;20067;-77
2024/02/01 10:38:58;;;;;;;13.60;8.57;;;;;;;9.44;33.31;101132.16;5086664;28;20489;-77
2024/02/01 10:41:32;;;;;;;13.43;7.78;;;;;;;8.94;34.14;101105.25;5090309;28;20035;-76
2024/02/01 10:44:01;;;;;;;12.68;8.20;;;;;;;9.66;33.16;101125.00;5090264;28;20048;-76
2024/02/01 10:46:56;;;;;;;12.25;8.00;;;;;;;9.28;32.30;101119.03;5074583;28;20434;-77
2024/02/01 10:49:25;;;;;;;13.23;8.48;;;;;;;9.11;32.63;101091.75;5056383;28;20036;-76
2024/02/01 10:51:51;;;;;;;15.00;9.32;;;;;;;10.17;32.57;101105.47;5069805;28;20137;-77
2024/02/01 10:54:18;;;;;;;13.48;7.60;;;;;;;9.82;31.24;101097.34;5068725;28;20525;-77
2024/02/01 10:56:44;;;;;;;13.80;7.85;;;;;;;10.45;31.35;101081.56;5070069;28;20499;-77
2024/02/01 10:59:10;;;;;;;11.98;7.80;;;;;;;10.57;30.38;101080.00;5089997;28;20024;-77
2024/02/01 11:01:38;;;;;;;13.13;8.65;;;;;;;10.77;31.40;101080.16;5088059;28;20032;-77
2024/02/01 11:04:05;;;;;;;13.53;8.73;;;;;;;10.23;31.39;101040.72;5051804;28;20025;-75
2024/02/01 11:06:31;;;;;;;12.23;7.97;;;;;;;10.14;30.63;101053.38;5084148;28;20508;-76
2024/02/01 11:09:17;;;;;;;13.32;8.10;;;;;;;10.99;29.60;101067.56;5089763;28;20051;-76
2024/02/01 11:11:47;;;;;;;27.05;19.27;;;;;;;11.00;30.20;101052.38;5088708;28;20031;-76
2024/02/01 11:14:17;;;;;;;14.52;8.45;;;;;;;11.33;29.87;101046.34;5089242;28;20510;-77
2024/02/01 11:16:51;;;;;;;14.80;8.23;;;;;;;11.69;29.12;101040.72;5086776;28;20394;-76
2024/02/01 11:19:22;;;;;;;13.48;9.73;;;;;;;12.14;29.64;101040.19;5090092;28;20063;-77
2024/02/01 11:22:01;;;;;;;13.45;8.10;;;;;;;11.80;27.80;101037.44;5088803;28;20043;-77
2024/02/01 11:24:27;;;;;;;;;;;;;;;12.09;27.79;101040.78;5069645;28;20070;-76
2024/02/01 11:27:09;;;;;;;13.85;8.05;;;;;;;12.35;28.34;101033.81;5082118;28;20015;-76
2024/02/01 11:29:40;;;;;;;12.00;7.95;;;;;;;12.56;27.90;101025.53;5089861;28;20036;-77
2024/02/01 11:32:06;;;;;;;14.35;9.65;;;;;;;12.54;27.19;101027.59;5086390;28;20043;-75
2024/02/01 11:34:33;;;;;;;10.77;7.28;;;;;;;12.10;28.25;101009.56;5069603;28;20033;-77
2024/02/01 11:37:00;;;;;;;11.70;6.60;;;;;;;12.10;27.62;101004.22;5083430;28;20032;-76
2024/02/01 11:39:27;;;;;;;13.20;7.32;;;;;;;12.31;27.50;101000.47;5089070;28;20051;-78
2024/02/01 11:41:53;;;;;;;12.00;7.38;;;;;;;13.10;27.21;101004.81;5089403;28;20028;-79
2024/02/01 11:44:20;;;;;;;12.23;7.68;;;;;;;13.62;26.54;101000.22;5089199;28;20043;-76
2024/02/01 11:46:47;;;;;;;10.00;6.07;;;;;;;12.99;26.20;100986.72;5077533;28;20537;-76
2024/02/01 11:49:18;;;;;;;10.45;5.97;;;;;;;12.97;25.92;100988.78;5051071;28;20123;-77
2024/02/01 11:52:15;;;;;;;11.13;6.85;;;;;;;12.86;26.51;100988.41;5068798;28;20028;-77
2024/02/01 11:54:47;;;;;;;14.05;9.00;;;;;;;12.88;27.18;100974.00;5069258;28;20032;-77
2024/02/01 11:57:17;;;;;;;11.23;6.57;;;;;;;13.35;25.83;100974.66;5084468;28;20028;-77
2024/02/01 11:59:47;;;;;;;9.95;6.00;;;;;;;13.71;24.87;100957.91;5089081;28;20024;-77
2024/02/01 12:02:12;;;;;;;9.73;6.53;;;;;;;13.40;26.37;100961.41;5070732;28;20408;-77
2024/02/01 12:04:41;;;;;;;10.00;6.43;;;;;;;13.01;26.30;100972.06;5089058;28;20107;-77
2024/02/01 12:07:08;;;;;;;10.55;6.47;;;;;;;13.44;25.82;100967.97;5088180;28;20130;-76
2024/02/01 12:09:38;;;;;;;10.95;6.72;;;;;;;13.63;25.03;100967.03;5088841;28;20028;-77
2024/02/01 12:12:04;;;;;;;11.25;7.13;;;;;;;13.60;24.96;100959.41;5088896;28;20028;-77
2024/02/01 12:14:29;;;;;;;10.95;6.43;;;;;;;13.62;25.75;100957.34;5052136;28;20032;-75
2024/02/01 12:16:55;;;;;;;9.10;5.53;;;;;;;13.58;24.13;100953.44;5079007;28;20131;-77
2024/02/01 12:19:25;;;;;;;10.20;6.65;;;;;;;14.44;24.69;100954.59;5088409;28;20028;-76
2024/02/01 12:21:54;;;;;;;11.63;6.47;;;;;;;15.20;23.00;100936.34;5089079;28;20035;-76
2024/02/01 12:24:31;;;;;;;22.90;20.58;;;;;;;15.73;21.64;100931.22;5072029;28;20042;-77
2024/02/01 12:26:57;;;;;;;8.07;4.68;;;;;;;15.49;21.43;100928.47;5076000;28;20028;-77
2024/02/01 12:29:23;;;;;;;6.80;3.78;;;;;;;15.50;20.98;100948.91;5088423;28;20378;-77